Time;durP1;ratioP1;P1;durP2;ratioP2;P2;SDS_P1;SDS_P2;PMS_P1;PMS_P2;Temp;Humidity;BMP_temperature;BMP_pressure;BME280_temperature;BME280_humidity;BME280_pressure;Samples;Min_cycle;Max_cycle;Signal;HPM_P1;HPM_P2
2022/12/19 00:01:55;;;;;;;;;32.00;28.33;;;;;5.44;100.00;101132.50;6253280;22;45383;-84
2022/12/19 00:04:21;;;;;;;;;29.67;28.00;;;;;5.52;100.00;101138.97;6250300;22;45286;-83
2022/12/19 00:06:46;;;;;;;;;30.33;30.33;;;;;5.58;100.00;101143.63;6254549;22;45345;-84
2022/12/19 00:09:12;;;;;;;;;28.00;28.00;;;;;5.59;100.00;101126.94;6253242;22;45294;-83
2022/12/19 00:11:39;;;;;;;;;27.00;27.00;;;;;5.61;100.00;101117.34;6255235;22;46117;-84
2022/12/19 00:14:06;;;;;;;;;28.00;28.00;;;;;5.67;100.00;101114.94;6253088;22;45290;-85
2022/12/19 00:16:31;;;;;;;;;34.33;28.00;;;;;5.64;100.00;101106.91;6254299;22;44830;-84
2022/12/19 00:18:58;;;;;;;;;35.33;28.33;;;;;5.69;100.00;101105.34;6253443;22;44858;-84
2022/12/19 00:21:26;;;;;;;;;42.00;33.67;;;;;5.73;100.00;101102.00;6277416;22;47013;-85
2022/12/19 00:23:53;;;;;;;;;33.67;28.33;;;;;5.71;100.00;101108.94;6253531;22;45774;-83
2022/12/19 00:26:28;;;;;;;;;30.33;29.00;;;;;5.73;100.00;101101.09;6281999;22;45221;-85
2022/12/19 00:28:59;;;;;;;;;29.00;28.00;;;;;5.80;100.00;101114.59;6254024;22;45528;-83
2022/12/19 00:31:27;;;;;;;;;27.33;24.33;;;;;5.80;100.00;101116.34;6256439;22;46042;-84
2022/12/19 00:33:53;;;;;;;;;36.00;32.00;;;;;5.77;100.00;101095.09;6255757;22;45373;-85
2022/12/19 00:39:40;;;;;;;;;29.33;27.33;;;;;5.77;100.00;101093.34;6255901;22;45283;-84
2022/12/19 00:42:06;;;;;;;;;28.00;25.67;;;;;5.81;100.00;101095.25;6255713;22;45293;-84
2022/12/19 00:44:31;;;;;;;;;29.00;26.67;;;;;5.85;100.00;101085.75;6279743;22;45303;-85
2022/12/19 00:46:57;;;;;;;;;28.33;26.33;;;;;5.85;100.00;101069.91;6253379;22;45537;-84
2022/12/19 00:52:44;;;;;;;;;29.00;27.67;;;;;5.86;100.00;101061.16;6254666;22;45305;-84
2022/12/19 00:55:10;;;;;;;;;30.67;24.33;;;;;5.88;100.00;101067.41;6253715;22;45399;-85
2022/12/19 00:57:43;;;;;;;;;32.00;28.00;;;;;5.92;100.00;101060.50;6277669;22;45358;-86
2022/12/19 01:00:09;;;;;;;;;32.00;27.33;;;;;5.91;100.00;101063.97;6251296;22;45315;-83
2022/12/19 01:02:34;;;;;;;;;28.33;28.00;;;;;5.91;100.00;101071.88;6252646;22;47097;-84
2022/12/19 01:05:00;;;;;;;;;27.00;25.00;;;;;5.98;100.00;101076.59;6254190;22;45263;-85
2022/12/19 01:07:25;;;;;;;;;32.33;28.00;;;;;5.93;100.00;101057.88;6251287;22;44750;-85
2022/12/19 01:09:51;;;;;;;;;25.00;22.67;;;;;5.96;100.00;101060.69;6252247;22;45326;-86
2022/12/19 01:15:00;;;;;;;;;27.00;25.33;;;;;5.98;100.00;101050.19;6253187;22;45267;-85
2022/12/19 01:17:26;;;;;;;;;24.00;21.67;;;;;6.03;100.00;101058.28;6251450;22;45343;-84
2022/12/19 01:19:51;;;;;;;;;29.00;25.67;;;;;6.04;100.00;101060.06;6250487;22;45288;-83
2022/12/19 01:22:18;;;;;;;;;29.00;25.00;;;;;5.99;100.00;101049.34;6250639;22;47197;-83
2022/12/19 01:24:43;;;;;;;;;24.00;23.00;;;;;6.05;100.00;101070.69;6250807;22;45421;-83
2022/12/19 01:27:09;;;;;;;;;28.33;26.67;;;;;6.04;100.00;101055.72;6253970;22;45357;-83
2022/12/19 01:29:35;;;;;;;;;24.33;22.67;;;;;6.07;100.00;101065.47;6251176;22;45405;-83
2022/12/19 01:32:01;;;;;;;;;28.00;28.00;;;;;6.02;100.00;101052.13;6254453;22;45285;-84
2022/12/19 01:34:26;;;;;;;;;28.33;22.00;;;;;6.10;100.00;101065.56;6253560;22;45433;-83
2022/12/19 01:36:53;;;;;;;;;22.00;17.67;;;;;6.15;100.00;101059.63;6255051;22;44875;-84
2022/12/19 01:39:19;;;;;;;;;22.00;21.33;;;;;6.17;100.00;101062.34;6257012;22;45365;-84
2022/12/19 01:41:44;;;;;;;;;25.33;25.00;;;;;6.20;100.00;101052.78;6254782;22;47221;-84
2022/12/19 01:44:10;;;;;;;;;23.00;20.33;;;;;6.25;100.00;101052.94;6255039;22;45266;-84
2022/12/19 01:46:43;;;;;;;;;21.67;20.00;;;;;6.29;100.00;101060.13;6255681;22;45289;-83
2022/12/19 01:49:18;;;;;;;;;21.33;21.33;;;;;6.31;100.00;101053.16;6252185;22;45553;-84
2022/12/19 01:51:47;;;;;;;;;23.00;20.67;;;;;6.37;100.00;101063.06;6255960;22;46477;-84
2022/12/19 01:54:18;;;;;;;;;25.00;21.33;;;;;6.34;100.00;101050.66;6254361;22;45409;-84
2022/12/19 01:56:49;;;;;;;;;21.33;21.33;;;;;6.41;100.00;101073.78;6254961;22;45366;-84
2022/12/19 01:59:38;;;;;;;;;21.00;19.67;;;;;6.45;100.00;101072.16;6254148;22;44885;-84
2022/12/19 02:02:13;;;;;;;;;25.00;23.00;;;;;6.48;100.00;101072.25;6235293;22;45948;-84
2022/12/19 02:04:40;;;;;;;;;21.00;21.00;;;;;6.49;100.00;101071.44;6254369;22;45262;-85
2022/12/19 02:07:07;;;;;;;;;18.67;18.67;;;;;6.53;100.00;101068.06;6253057;22;44756;-84
2022/12/19 02:09:34;;;;;;;;;20.00;19.67;;;;;6.55;100.00;101076.03;6252924;22;45552;-85
2022/12/19 02:12:00;;;;;;;;;20.33;18.00;;;;;6.54;100.00;101064.56;6254756;22;45526;-85
2022/12/19 02:14:27;;;;;;;;;22.00;19.00;;;;;6.54;100.00;101067.19;6278364;22;45358;-86
2022/12/19 02:17:37;;;;;;;;;23.67;21.67;;;;;6.61;100.00;101065.69;6253853;22;45311;-85
2022/12/19 02:20:37;;;;;;;;;22.00;19.67;;;;;6.62;100.00;101070.13;6135473;23;45504;-84
2022/12/19 02:23:39;;;;;;;;;22.67;19.33;;;;;6.66;100.00;101071.13;6110486;23;48326;-84
2022/12/19 02:26:38;;;;;;;;;22.33;18.33;;;;;6.68;100.00;101057.13;6108323;23;45474;-84
2022/12/19 02:29:22;;;;;;;;;23.00;20.67;;;;;6.69;100.00;101077.44;6133218;23;45409;-84
2022/12/19 02:32:13;;;;;;;;;24.67;22.00;;;;;6.70;100.00;101066.00;6134661;23;45439;-84
2022/12/19 02:35:06;;;;;;;;;29.67;23.33;;;;;6.66;100.00;101058.81;6129614;23;45197;-84
2022/12/19 02:37:36;;;;;;;;;19.00;19.00;;;;;6.69;100.00;101061.56;6128243;23;45369;-84
2022/12/19 02:40:25;;;;;;;;;23.67;22.33;;;;;6.63;100.00;101044.59;6129876;23;45444;-84
2022/12/19 02:42:58;;;;;;;;;21.00;19.67;;;;;6.75;100.00;101064.44;6129561;23;45289;-84
2022/12/19 02:45:28;;;;;;;;;24.33;20.67;;;;;6.71;100.00;101072.19;6103854;23;47126;-84
2022/12/19 02:47:56;;;;;;;;;22.67;19.67;;;;;6.77;100.00;101072.41;6129890;23;45379;-84
2022/12/19 02:50:21;;;;;;;;;22.67;21.00;;;;;6.80;100.00;101077.78;6129419;23;44828;-84
2022/12/19 02:52:47;;;;;;;;;23.00;20.33;;;;;6.79;100.00;101074.25;6105337;23;45410;-84
2022/12/19 02:55:17;;;;;;;;;26.00;23.33;;;;;6.80;100.00;101067.22;6248621;22;45525;-84
2022/12/19 02:57:56;;;;;;;;;24.33;20.00;;;;;6.79;100.00;101057.50;6253640;22;45350;-84
2022/12/19 03:00:25;;;;;;;;;21.67;19.67;;;;;6.82;100.00;101070.81;6278084;22;45508;-84
2022/12/19 03:03:14;;;;;;;;;21.33;19.00;;;;;6.87;100.00;101073.59;6253700;22;45227;-83
2022/12/19 03:06:01;;;;;;;;;21.67;20.67;;;;;6.85;100.00;101060.34;6251207;22;47697;-83
2022/12/19 03:08:32;;;;;;;;;20.00;18.00;;;;;6.87;100.00;101060.38;6277375;22;45346;-84
2022/12/19 03:11:01;;;;;;;;;18.67;16.67;;;;;6.83;100.00;101030.31;6254462;22;44774;-84
2022/12/19 03:13:41;;;;;;;;;20.33;17.67;;;;;6.88;100.00;101054.28;6251529;22;45335;-83
2022/12/19 03:16:09;;;;;;;;;17.67;16.00;;;;;6.89;100.00;101030.53;6278621;22;46751;-84
2022/12/19 03:18:37;;;;;;;;;18.33;17.67;;;;;6.89;100.00;101046.41;6253071;22;45335;-83
2022/12/19 03:21:19;;;;;;;;;25.33;21.67;;;;;6.90;100.00;101047.28;6252809;22;45226;-84
2022/12/19 03:23:46;;;;;;;;;24.33;21.00;;;;;6.86;100.00;101046.28;6253457;22;44771;-84
2022/12/19 03:26:17;;;;;;;;;20.00;17.67;;;;;6.88;100.00;101054.28;6251374;22;47127;-83
2022/12/19 03:28:55;;;;;;;;;16.00;14.00;;;;;6.88;100.00;101048.97;6251567;22;45406;-84
2022/12/19 03:31:50;;;;;;;;;21.67;21.67;;;;;6.88;100.00;101051.63;6252413;22;45736;-84
2022/12/19 03:34:24;;;;;;;;;21.00;20.33;;;;;6.84;100.00;101042.69;6250265;22;45357;-84
2022/12/19 03:37:00;;;;;;;;;27.00;20.00;;;;;6.88;100.00;101036.66;6250955;22;46855;-84
2022/12/19 03:39:27;;;;;;;;;21.33;21.33;;;;;6.88;100.00;101041.94;6251454;22;45390;-84
2022/12/19 03:44:42;;;;;;;;;21.00;21.00;;;;;6.92;100.00;101053.53;6254754;22;45254;-85
2022/12/19 03:47:13;;;;;;;;;22.00;18.67;;;;;6.96;100.00;101055.41;6254156;22;46584;-85
2022/12/19 03:49:39;;;;;;;;;22.00;21.00;;;;;6.94;100.00;101050.06;6255152;22;44696;-83
2022/12/19 03:52:41;;;;;;;;;17.00;14.33;;;;;7.02;100.00;101058.28;6253123;22;45309;-84
2022/12/19 03:55:22;;;;;;;;;20.00;18.33;;;;;7.00;100.00;101054.69;6252077;22;45773;-85
2022/12/19 03:57:57;;;;;;;;;18.67;18.67;;;;;7.04;100.00;101060.97;6275488;22;47084;-85
2022/12/19 04:00:24;;;;;;;;;22.67;18.33;;;;;7.10;100.00;101063.81;6251394;22;45374;-85
2022/12/19 04:06:13;;;;;;;;;21.33;19.00;;;;;7.05;100.00;101058.38;6252602;22;45286;-85
2022/12/19 04:08:39;;;;;;;;;16.33;16.33;;;;;7.09;100.00;101076.16;6250945;22;47163;-85
2022/12/19 04:11:14;;;;;;;;;18.00;16.00;;;;;7.16;100.00;101072.84;6250901;22;45712;-84
2022/12/19 04:13:50;;;;;;;;;20.00;18.67;;;;;7.21;100.00;101076.56;6252205;22;45452;-84
2022/12/19 04:16:26;;;;;;;;;16.00;16.00;;;;;7.18;100.00;101080.84;6253243;22;45375;-84
2022/12/19 04:19:02;;;;;;;;;16.33;16.33;;;;;7.21;100.00;101068.63;6252801;22;47014;-84
2022/12/19 04:21:34;;;;;;;;;16.00;15.00;;;;;7.21;100.00;101070.34;6254502;22;45312;-85
2022/12/19 04:24:06;;;;;;;;;22.00;20.67;;;;;7.22;100.00;101077.44;6252743;22;45367;-84
2022/12/19 04:26:35;;;;;;;;;20.00;16.33;;;;;7.23;100.00;101063.41;6278084;22;44908;-85
2022/12/19 04:29:03;;;;;;;;;16.00;16.00;;;;;7.21;100.00;101065.06;6278156;22;47275;-85
2022/12/19 04:32:19;;;;;;;;;16.00;16.00;;;;;7.22;100.00;101058.94;6256347;22;45294;-85
2022/12/19 04:34:44;;;;;;;;;17.67;16.67;;;;;7.23;100.00;101068.69;6255485;22;45155;-84
2022/12/19 04:37:11;;;;;;;;;20.33;17.33;;;;;7.24;100.00;101070.47;6259398;22;45503;-85
2022/12/19 04:39:36;;;;;;;;;18.33;18.33;;;;;7.22;100.00;101064.22;6258102;22;44996;-85
2022/12/19 04:42:02;;;;;;;;;20.33;16.00;;;;;7.20;100.00;101060.63;6255998;22;45252;-85
2022/12/19 04:45:17;;;;;;;;;21.00;18.33;;;;;7.25;100.00;101059.06;6256648;22;45469;-85
2022/12/19 04:47:43;;;;;;;;;25.67;17.00;;;;;7.18;100.00;101057.94;6250754;22;45333;-84
2022/12/19 04:50:09;;;;;;;;;16.67;15.67;;;;;7.24;100.00;101062.53;6252903;22;45880;-85
2022/12/19 04:52:34;;;;;;;;;16.33;15.33;;;;;7.23;100.00;101068.69;6277756;22;45370;-84
2022/12/19 04:54:59;;;;;;;;;17.00;16.00;;;;;7.22;100.00;101056.28;6251803;22;45391;-86
2022/12/19 04:58:21;;;;;;;;;22.33;20.67;;;;;7.26;100.00;101071.41;6249655;22;45400;-85
2022/12/19 05:00:46;;;;;;;;;16.67;15.33;;;;;7.27;100.00;101059.06;6253153;22;47748;-85
2022/12/19 05:03:12;;;;;;;;;15.33;15.00;;;;;7.28;100.00;101056.50;6251721;22;45291;-85
2022/12/19 05:05:37;;;;;;;;;20.67;17.33;;;;;7.29;100.00;101063.59;6252368;22;45341;-84
2022/12/19 05:08:02;;;;;;;;;20.00;20.00;;;;;7.29;100.00;101053.00;6252156;22;45412;-85
2022/12/19 05:10:28;;;;;;;;;17.00;15.00;;;;;7.24;100.00;101041.38;6253030;22;47004;-85
2022/12/19 05:12:53;;;;;;;;;19.67;19.33;;;;;7.25;100.00;101042.25;6251167;22;45408;-85
2022/12/19 05:15:19;;;;;;;;;17.67;17.67;;;;;7.28;100.00;101050.31;6257986;22;45424;-84
2022/12/19 05:17:44;;;;;;;;;21.67;21.67;;;;;7.30;100.00;101046.84;6254180;22;45261;-85
2022/12/19 05:20:10;;;;;;;;;16.67;16.33;;;;;7.27;100.00;101040.56;6252555;22;46660;-85
2022/12/19 05:22:36;;;;;;;;;13.00;11.67;;;;;7.25;100.00;101029.03;6253393;22;44930;-85
2022/12/19 05:25:01;;;;;;;;;21.00;18.67;;;;;7.32;100.00;101050.44;6253847;22;45402;-84
2022/12/19 05:27:27;;;;;;;;;16.00;12.50;;;;;7.33;100.00;101038.09;6257520;22;45288;-84
2022/12/19 05:29:52;;;;;;;;;17.00;17.00;;;;;7.29;100.00;101045.06;6281278;22;46566;-85
2022/12/19 05:32:17;;;;;;;;;19.67;18.67;;;;;7.33;100.00;101060.19;6252979;22;45236;-84
2022/12/19 05:34:43;;;;;;;;;18.00;16.00;;;;;7.33;100.00;101059.28;6254498;22;45396;-84
2022/12/19 05:37:08;;;;;;;;;23.67;21.67;;;;;7.39;100.00;101078.91;6255166;22;45334;-85
2022/12/19 05:39:34;;;;;;;;;20.67;17.33;;;;;7.40;100.00;101069.22;6254105;22;45200;-84
2022/12/19 05:41:59;;;;;;;;;19.33;17.00;;;;;7.41;100.00;101066.63;6251821;22;45312;-84
2022/12/19 05:44:25;;;;;;;;;20.67;18.67;;;;;7.49;100.00;101076.53;6253936;22;45102;-84
2022/12/19 05:46:50;;;;;;;;;14.67;12.00;;;;;7.52;100.00;101066.97;6255952;22;45258;-83
2022/12/19 05:53:04;;;;;;;;;15.33;15.33;;;;;7.57;100.00;101060.06;6254396;22;45349;-83
2022/12/19 05:55:29;;;;;;;;;19.33;16.67;;;;;7.58;100.00;101051.28;6253255;22;44908;-84
2022/12/19 05:57:55;;;;;;;;;17.33;16.00;;;;;7.60;100.00;101061.91;6255019;22;45358;-85
2022/12/19 06:00:20;;;;;;;;;16.33;15.67;;;;;7.58;100.00;101050.38;6255018;22;45397;-84
2022/12/19 06:02:47;;;;;;;;;17.00;17.00;;;;;7.59;100.00;101068.97;6253828;22;45472;-86
2022/12/19 06:05:13;;;;;;;;;18.67;17.33;;;;;7.59;100.00;101060.09;6254686;22;45324;-85
2022/12/19 06:07:39;;;;;;;;;22.00;19.00;;;;;7.62;100.00;101062.88;6259244;22;45290;-83
2022/12/19 06:10:05;;;;;;;;;18.67;17.00;;;;;7.60;100.00;101059.28;6256754;22;45339;-84
2022/12/19 06:12:31;;;;;;;;;18.00;16.33;;;;;7.63;100.00;101059.34;6280706;22;45307;-84
2022/12/19 06:14:57;;;;;;;;;23.00;16.67;;;;;7.60;100.00;101060.16;6253287;22;45287;-84
2022/12/19 06:17:22;;;;;;;;;16.00;13.00;;;;;7.55;100.00;101044.97;6255829;22;45489;-83
2022/12/19 06:19:48;;;;;;;;;18.33;16.33;;;;;7.50;100.00;101050.13;6279341;22;46562;-85
2022/12/19 06:22:13;;;;;;;;;22.67;18.67;;;;;7.52;100.00;101056.38;6254777;22;45362;-85
2022/12/19 06:24:39;;;;;;;;;18.67;16.33;;;;;7.53;100.00;101066.09;6257474;22;45294;-85
2022/12/19 06:27:04;;;;;;;;;17.67;15.33;;;;;7.53;100.00;101062.56;6257089;22;44781;-84
2022/12/19 06:29:30;;;;;;;;;21.67;17.00;;;;;7.51;100.00;101053.66;6255729;22;45796;-84
2022/12/19 06:31:58;;;;;;;;;22.00;17.00;;;;;7.53;100.00;101057.25;6256418;22;45358;-84
2022/12/19 06:34:24;;;;;;;;;10.00;9.33;;;;;7.46;100.00;101044.72;6256042;22;45396;-84
2022/12/19 06:36:49;;;;;;;;;19.00;17.00;;;;;7.44;100.00;101042.00;6253246;22;44770;-84
2022/12/19 06:39:21;;;;;;;;;14.67;14.67;;;;;7.51;100.00;101051.91;6254200;22;46747;-86
2022/12/19 06:44:32;;;;;;;;;19.67;14.33;;;;;7.52;100.00;101051.09;6255665;22;45768;-83
2022/12/19 06:46:58;;;;;;;;;16.00;16.00;;;;;7.49;100.00;101050.09;6280696;22;44930;-87
2022/12/19 06:49:23;;;;;;;;;16.33;13.00;;;;;7.45;100.00;101043.78;6257610;22;45131;-86
2022/12/19 06:51:49;;;;;;;;;19.33;15.67;;;;;7.43;100.00;101044.59;6257944;22;45603;-86
2022/12/19 06:54:37;;;;;;;;;17.00;16.67;;;;;7.52;100.00;101050.19;6256690;22;45374;-84
2022/12/19 06:57:02;;;;;;;;;18.00;17.00;;;;;7.48;100.00;101041.25;6254057;22;44812;-84
2022/12/19 06:59:28;;;;;;;;;17.00;15.67;;;;;7.46;100.00;101034.13;6253580;22;47495;-85
2022/12/19 07:02:03;;;;;;;;;17.00;16.00;;;;;7.54;100.00;101056.44;6252729;22;45433;-83
2022/12/19 07:04:42;;;;;;;;;12.00;12.00;;;;;7.55;100.00;101050.28;6254655;22;45416;-84
2022/12/19 07:10:30;;;;;;;;;12.67;12.67;;;;;7.54;100.00;101048.50;6255048;22;45553;-84
2022/12/19 07:12:55;;;;;;;;;11.67;11.67;;;;;7.58;100.00;101064.50;6254147;22;45405;-84
2022/12/19 07:15:21;;;;;;;;;11.67;11.67;;;;;7.52;100.00;101044.91;6250836;22;44871;-84
2022/12/19 07:17:57;;;;;;;;;;;;;;;;;;;;;
2022/12/19 07:20:33;;;;;;;;;14.33;13.00;;;;;7.53;100.00;101052.88;6253467;22;74197;-84
2022/12/19 07:23:00;;;;;;;;;13.67;12.33;;;;;7.61;100.00;101063.69;6251609;22;45251;-85
2022/12/19 07:25:26;;;;;;;;;18.33;16.33;;;;;7.60;100.00;101068.09;6279672;22;44707;-84
2022/12/19 07:27:57;;;;;;;;;15.33;15.33;;;;;7.53;100.00;101057.25;6278162;22;45589;-84
2022/12/19 07:30:32;;;;;;;;;16.33;14.67;;;;;7.59;100.00;101062.75;6254902;22;46008;-84
2022/12/19 07:32:58;;;;;;;;;18.00;14.33;;;;;7.57;100.00;101069.75;6254265;22;45688;-84
2022/12/19 07:35:27;;;;;;;;;16.00;15.67;;;;;7.55;100.00;101060.84;6254636;22;45303;-84
2022/12/19 07:37:52;;;;;;;;;11.67;9.67;;;;;7.58;100.00;101075.09;6254887;22;45548;-83
2022/12/19 07:40:18;;;;;;;;;13.33;13.33;;;;;7.56;100.00;101063.56;6252968;22;45941;-84
2022/12/19 07:42:44;;;;;;;;;17.00;14.33;;;;;7.61;100.00;101074.28;6251377;22;45217;-83
2022/12/19 07:45:11;;;;;;;;;19.00;16.00;;;;;7.58;100.00;101068.91;6251481;22;45456;-85
2022/12/19 07:47:36;;;;;;;;;16.67;16.67;;;;;7.55;100.00;101060.84;6252279;22;45775;-83
2022/12/19 07:50:02;;;;;;;;;14.67;12.67;;;;;7.57;100.00;101070.66;6255993;22;45381;-84
2022/12/19 07:52:27;;;;;;;;;17.00;16.00;;;;;7.61;100.00;101079.56;6256805;22;45437;-84
2022/12/19 07:54:53;;;;;;;;;15.67;15.33;;;;;7.60;100.00;101070.75;6229919;22;45320;-84
2022/12/19 07:57:25;;;;;;;;;14.67;14.67;;;;;7.62;100.00;101076.09;6253597;22;45578;-85
2022/12/19 08:03:14;;;;;;;;;20.00;18.00;;;;;7.68;100.00;101084.22;6258460;22;45615;-86
2022/12/19 08:05:39;;;;;;;;;16.00;16.00;;;;;7.71;100.00;101080.78;6257975;22;45355;-86
2022/12/19 08:08:05;;;;;;;;;16.67;16.33;;;;;7.70;100.00;101073.69;6263898;22;45274;-85
2022/12/19 08:10:30;;;;;;;;;17.33;17.33;;;;;7.78;100.00;101088.97;6261011;22;45340;-85
2022/12/19 08:12:56;;;;;;;;;18.00;17.00;;;;;7.80;100.00;101099.59;6280516;22;45365;-84
2022/12/19 08:15:21;;;;;;;;;17.00;15.67;;;;;7.82;100.00;101093.50;6254342;22;44793;-85
2022/12/19 08:17:47;;;;;;;;;17.67;15.67;;;;;7.78;100.00;101075.72;6256948;22;45546;-84
2022/12/19 08:20:12;;;;;;;;;18.00;18.00;;;;;7.87;100.00;101096.28;6255153;22;47975;-85
2022/12/19 08:22:38;;;;;;;;;19.67;17.00;;;;;7.87;100.00;101079.50;6257885;22;45370;-83
2022/12/19 08:25:05;;;;;;;;;17.33;17.00;;;;;7.93;100.00;101100.88;6255039;22;45402;-85
2022/12/19 08:28:18;;;;;;;;;18.33;15.67;;;;;7.98;100.00;101097.50;6281867;22;45230;-85
2022/12/19 08:30:43;;;;;;;;;16.67;14.33;;;;;7.99;100.00;101093.09;6257327;22;46907;-85
2022/12/19 08:33:09;;;;;;;;;21.00;16.67;;;;;8.03;100.00;101100.28;6256823;22;45629;-85
2022/12/19 08:35:36;;;;;;;;;19.00;17.33;;;;;8.07;100.00;101096.00;6256609;22;44873;-84
2022/12/19 08:38:11;;;;;;;;;16.00;16.00;;;;;8.07;100.00;101077.44;6255352;22;45523;-84
2022/12/19 08:41:05;;;;;;;;;16.00;15.33;;;;;8.14;100.00;101090.00;6260414;22;45274;-85
2022/12/19 08:43:34;;;;;;;;;17.33;15.67;;;;;8.11;100.00;101074.94;6258198;22;45215;-84
2022/12/19 08:46:01;;;;;;;;;17.33;14.67;;;;;8.07;100.00;101069.50;6256517;22;45428;-83
2022/12/19 08:48:26;;;;;;;;;13.00;12.33;;;;;8.16;100.00;101091.88;6258292;22;45432;-84
2022/12/19 08:50:58;;;;;;;;;17.67;15.67;;;;;8.18;100.00;101076.00;6259269;22;45357;-84
2022/12/19 08:53:26;;;;;;;;;18.33;16.00;;;;;8.31;100.00;101093.16;6258311;22;45414;-84
2022/12/19 08:56:10;;;;;;;;;15.67;15.67;;;;;8.36;100.00;101092.44;6256943;22;45510;-84
2022/12/19 08:58:39;;;;;;;;;18.00;15.33;;;;;8.33;100.00;101070.25;6255498;22;45323;-85
2022/12/19 09:01:14;;;;;;;;;18.33;14.00;;;;;8.30;100.00;101055.19;6259710;22;45386;-84
2022/12/19 09:03:40;;;;;;;;;13.00;13.00;;;;;8.33;100.00;101052.59;6253810;22;45691;-85
2022/12/19 09:06:09;;;;;;;;;13.00;13.00;;;;;8.35;100.00;101053.53;6257988;22;45274;-85
2022/12/19 09:08:37;;;;;;;;;13.33;13.33;;;;;8.53;100.00;101073.50;6255949;22;45564;-83
2022/12/19 09:11:07;;;;;;;;;13.67;10.67;;;;;8.63;100.00;101079.97;6255208;22;48151;-84
2022/12/19 09:13:42;;;;;;;;;12.67;11.33;;;;;8.68;100.00;101083.63;6256707;22;45531;-85
2022/12/19 09:16:17;;;;;;;;;15.33;13.00;;;;;8.69;100.00;101080.13;6256779;22;45295;-84
2022/12/19 09:18:51;;;;;;;;;14.00;10.67;;;;;8.77;100.00;101083.88;6259352;22;45266;-84
2022/12/19 09:21:20;;;;;;;;;13.67;11.00;;;;;8.79;100.00;101076.88;6257470;22;47033;-85
2022/12/19 09:23:55;;;;;;;;;11.67;11.67;;;;;8.55;100.00;101024.97;6261374;22;44883;-84
2022/12/19 09:26:36;;;;;;;;;12.67;12.00;;;;;8.82;100.00;101071.63;6258988;22;45370;-84
2022/12/19 09:29:19;;;;;;;;;12.00;12.00;;;;;8.65;100.00;101036.72;6259250;22;45553;-85
2022/12/19 09:31:45;;;;;;;;;15.00;13.67;;;;;8.95;100.00;101089.66;6260055;22;46866;-83
2022/12/19 09:34:15;;;;;;;;;12.67;11.00;;;;;8.80;100.00;101068.03;6284506;22;45371;-84
2022/12/19 09:37:22;;;;;;;;;14.00;14.00;;;;;9.01;100.00;101108.41;6288252;22;44785;-83
2022/12/19 09:39:48;;;;;;;;;13.67;13.00;;;;;8.80;100.00;101070.69;6257432;22;45426;-83
2022/12/19 09:42:37;;;;;;;;;19.67;13.00;;;;;9.07;100.00;101109.41;6285901;22;46761;-83
2022/12/19 09:45:53;;;;;;;;;14.00;14.00;;;;;9.09;100.00;101126.25;6260458;22;45137;-85
2022/12/19 09:48:26;;;;;;;;;11.67;10.67;;;;;8.87;100.00;101083.28;6268004;22;44739;-85
2022/12/19 09:51:20;;;;;;;;;10.33;8.00;;;;;9.15;100.00;101118.47;6263827;22;45070;-84
2022/12/19 09:53:51;;;;;;;;;10.33;10.33;;;;;9.15;100.00;101110.50;6263947;22;47079;-84
2022/12/19 10:00:44;;;;;;;;;13.00;13.00;;;;;9.19;100.00;101105.31;6259755;22;45338;-84
2022/12/19 10:03:37;;;;;;;;;13.00;12.00;;;;;9.19;100.00;101105.31;6258692;22;45165;-82
2022/12/19 10:06:19;;;;;;;;;17.67;17.33;;;;;9.05;100.00;101073.97;6285089;22;46776;-83
2022/12/19 10:08:45;;;;;;;;;13.00;12.00;;;;;9.18;100.00;101098.22;6260493;22;45401;-83
2022/12/19 10:11:33;;;;;;;;;15.00;15.00;;;;;9.21;100.00;101103.63;6260489;22;45411;-84
2022/12/19 10:14:45;;;;;;;;;;;;;;;;;;;;;
2022/12/19 10:17:33;;;;;;;;;19.67;17.00;;;;;9.22;100.00;101072.66;6259687;22;74648;-84
2022/12/19 10:20:34;;;;;;;;;17.33;14.33;;;;;9.31;100.00;101088.81;6256957;22;45227;-83
2022/12/19 10:23:39;;;;;;;;;14.00;14.00;;;;;9.35;100.00;101082.72;6288183;22;44745;-85
2022/12/19 10:26:32;;;;;;;;;13.67;13.67;;;;;9.39;100.00;101076.63;6241753;22;44850;-85
2022/12/19 10:29:30;;;;;;;;;10.33;10.33;;;;;9.35;100.00;101053.53;6257241;22;46786;-84
2022/12/19 10:32:21;;;;;;;;;12.67;9.33;;;;;9.49;100.00;101071.53;6263769;22;45187;-84
2022/12/19 10:35:04;;;;;;;;;13.67;12.33;;;;;9.52;100.00;101066.31;6262796;22;45311;-83
2022/12/19 10:37:42;;;;;;;;;13.00;12.33;;;;;9.43;100.00;101045.72;6285361;22;44716;-83
2022/12/19 10:40:31;;;;;;;;;8.33;8.33;;;;;9.65;100.00;101072.78;6258552;22;47023;-84
2022/12/19 10:43:11;;;;;;;;;12.00;7.00;;;;;9.69;100.00;101069.34;6257732;22;45476;-83
2022/12/19 10:46:17;;;;;;;;;12.00;9.00;;;;;9.81;100.00;101072.25;6260865;22;45236;-85
2022/12/19 10:48:43;;;;;;;;;7.33;7.33;;;;;9.84;100.00;101069.69;6259138;22;45533;-85
2022/12/19 10:51:21;;;;;;;;;13.00;9.00;;;;;9.91;100.00;101078.69;6262097;22;47419;-84
2022/12/19 10:53:56;;;;;;;;;6.00;6.00;;;;;9.86;100.00;101057.34;6259693;22;44681;-85
2022/12/19 10:56:42;;;;;;;;;8.67;8.00;;;;;9.95;100.00;101061.94;6259067;22;45407;-85
2022/12/19 10:59:35;;;;;;;;;8.00;8.00;;;;;10.05;100.00;101068.38;6284300;22;45378;-84
2022/12/19 11:02:23;;;;;;;;;8.67;8.33;;;;;10.09;100.00;101065.78;6262687;22;45473;-85
2022/12/19 11:04:48;;;;;;;;;12.33;7.00;;;;;10.17;100.00;101064.19;6267777;22;44626;-83
2022/12/19 11:18:10;;;;;;;;;6.00;5.33;;;;;10.40;100.00;101056.75;6264129;22;44681;-82
2022/12/19 11:20:37;;;;;;;;;12.67;10.00;;;;;10.39;100.00;101049.63;6258078;22;44804;-82
2022/12/19 11:23:14;;;;;;;;;11.67;8.00;;;;;10.38;100.00;101025.66;6262749;22;44864;-83
2022/12/19 11:25:45;;;;;;;;;7.00;6.67;;;;;10.58;100.00;101052.63;6263376;22;46789;-82
2022/12/19 11:28:23;;;;;;;;;4.00;4.00;;;;;10.62;100.00;101038.50;6265078;22;45607;-82
2022/12/19 11:31:25;;;;;;;;;;;;;;;;;;;;;
2022/12/19 11:34:04;;;;;;;;;11.67;10.67;;;;;10.58;100.00;100989.72;6262401;22;65267;-82
2022/12/19 11:47:15;;;;;;;;;10.00;8.33;;;;;10.92;100.00;101024.88;6262425;22;45299;-85
2022/12/19 11:50:08;;;;;;;;;9.33;9.33;;;;;10.96;100.00;101020.50;6132785;23;45412;-84
2022/12/19 11:53:09;;;;;;;;;9.33;8.33;;;;;10.95;100.00;101011.63;6133933;23;45400;-84
2022/12/19 11:56:00;;;;;;;;;10.67;10.67;;;;;10.99;100.00;101017.91;6112729;23;45401;-84
2022/12/19 11:58:49;;;;;;;;;8.00;8.00;;;;;10.99;100.00;101005.47;6115102;23;44804;-85
2022/12/19 12:02:03;;;;;;;;;7.33;7.33;;;;;11.04;100.00;101008.22;6088160;23;45115;-85
2022/12/19 12:04:50;;;;;;;;;7.33;5.67;;;;;11.07;100.00;101004.69;6109293;23;44717;-85
2022/12/19 12:16:43;;;;;;;;;6.33;6.33;;;;;11.25;100.00;100983.72;6297247;22;45139;-84
2022/12/19 12:19:33;;;;;;;;;9.00;9.00;;;;;11.33;100.00;100984.72;6294439;22;44803;-82
2022/12/19 12:22:46;;;;;;;;;5.67;5.67;;;;;11.28;100.00;100965.09;6261924;22;45237;-82
2022/12/19 12:25:37;;;;;;;;;5.00;5.00;;;;;11.34;100.00;100978.50;6263159;22;45410;-82
2022/12/19 12:28:27;;;;;;;;;5.00;5.00;;;;;11.41;100.00;100985.72;6262982;22;45681;-83
2022/12/19 12:31:26;;;;;;;;;6.33;4.00;;;;;11.25;100.00;100959.75;6264517;22;45378;-82
2022/12/19 12:34:49;;;;;;;;;3.67;3.67;;;;;11.25;100.00;100951.78;6264002;22;44705;-84
2022/12/19 12:38:20;;;;;;;;;7.00;7.00;;;;;11.39;100.00;100955.53;6202401;22;45588;-83
2022/12/19 12:41:12;;;;;;;;;8.33;7.00;;;;;11.40;100.00;100970.63;6107514;23;44759;-84
2022/12/19 12:44:25;;;;;;;;;5.67;5.00;;;;;11.41;100.00;100945.78;6084152;23;45436;-83
2022/12/19 12:47:14;;;;;;;;;5.33;5.33;;;;;11.47;100.00;100952.06;6111735;23;44885;-83
2022/12/19 12:49:52;;;;;;;;;4.33;4.33;;;;;11.52;100.00;100955.69;6084495;23;46847;-83
2022/12/19 12:53:06;;;;;;;;;5.00;5.00;;;;;11.61;100.00;100964.72;6112783;23;44685;-84